sensor_id;sensor_type;location;lat;lon;timestamp;temperature;humidity
32366;DHT22;18837;46.832;16.838;2023-02-03T00:02:21;5.00;94.90
32366;DHT22;18837;46.832;16.838;2023-02-03T00:04:46;4.90;94.90
32366;DHT22;18837;46.832;16.838;2023-02-03T00:07:13;4.90;94.80
32366;DHT22;18837;46.832;16.838;2023-02-03T00:09:40;4.90;95.00
32366;DHT22;18837;46.832;16.838;2023-02-03T00:12:06;4.90;95.00
32366;DHT22;18837;46.832;16.838;2023-02-03T00:14:32;4.90;94.90
32366;DHT22;18837;46.832;16.838;2023-02-03T00:16:58;4.90;95.00
32366;DHT22;18837;46.832;16.838;2023-02-03T00:19:24;4.90;94.80
32366;DHT22;18837;46.832;16.838;2023-02-03T00:21:49;4.90;95.00
32366;DHT22;18837;46.832;16.838;2023-02-03T00:24:15;4.80;95.30
32366;DHT22;18837;46.832;16.838;2023-02-03T00:26:43;4.80;95.00
32366;DHT22;18837;46.832;16.838;2023-02-03T00:29:09;4.90;94.90
32366;DHT22;18837;46.832;16.838;2023-02-03T00:31:35;4.80;95.10
32366;DHT22;18837;46.832;16.838;2023-02-03T00:34:01;4.80;95.00
32366;DHT22;18837;46.832;16.838;2023-02-03T00:36:27;4.80;94.90
32366;DHT22;18837;46.832;16.838;2023-02-03T00:38:53;4.80;95.00
32366;DHT22;18837;46.832;16.838;2023-02-03T00:41:20;4.80;95.00
32366;DHT22;18837;46.832;16.838;2023-02-03T00:43:46;4.80;95.00
32366;DHT22;18837;46.832;16.838;2023-02-03T00:46:12;4.80;95.20
32366;DHT22;18837;46.832;16.838;2023-02-03T00:48:38;4.80;95.30
32366;DHT22;18837;46.832;16.838;2023-02-03T00:51:04;4.80;95.20
32366;DHT22;18837;46.832;16.838;2023-02-03T00:53:29;4.80;94.70
32366;DHT22;18837;46.832;16.838;2023-02-03T00:55:55;4.70;95.20
32366;DHT22;18837;46.832;16.838;2023-02-03T00:58:21;4.80;95.40
32366;DHT22;18837;46.832;16.838;2023-02-03T01:00:47;4.70;94.80
32366;DHT22;18837;46.832;16.838;2023-02-03T01:03:12;4.80;95.10
32366;DHT22;18837;46.832;16.838;2023-02-03T01:05:38;4.70;95.10
32366;DHT22;18837;46.832;16.838;2023-02-03T01:08:05;4.70;95.30
32366;DHT22;18837;46.832;16.838;2023-02-03T01:10:31;4.70;95.40
32366;DHT22;18837;46.832;16.838;2023-02-03T01:12:57;4.70;94.90
32366;DHT22;18837;46.832;16.838;2023-02-03T01:15:22;4.70;95.10
32366;DHT22;18837;46.832;16.838;2023-02-03T01:17:48;3.90;94.90
32366;DHT22;18837;46.832;16.838;2023-02-03T01:20:14;4.70;95.20
32366;DHT22;18837;46.832;16.838;2023-02-03T01:22:41;4.70;95.20
32366;DHT22;18837;46.832;16.838;2023-02-03T01:25:07;4.70;95.30
32366;DHT22;18837;46.832;16.838;2023-02-03T01:27:33;4.70;95.20
32366;DHT22;18837;46.832;16.838;2023-02-03T01:29:59;4.70;95.40
32366;DHT22;18837;46.832;16.838;2023-02-03T01:32:25;4.70;95.20
32366;DHT22;18837;46.832;16.838;2023-02-03T01:34:51;4.70;95.10
32366;DHT22;18837;46.832;16.838;2023-02-03T01:37:17;4.70;95.50
32366;DHT22;18837;46.832;16.838;2023-02-03T01:39:43;4.70;95.30
32366;DHT22;18837;46.832;16.838;2023-02-03T01:42:15;4.70;95.50
32366;DHT22;18837;46.832;16.838;2023-02-03T01:44:48;4.70;95.90
32366;DHT22;18837;46.832;16.838;2023-02-03T01:47:32;4.70;95.90
32366;DHT22;18837;46.832;16.838;2023-02-03T01:50:14;4.70;96.00
32366;DHT22;18837;46.832;16.838;2023-02-03T01:52:43;4.60;96.20
32366;DHT22;18837;46.832;16.838;2023-02-03T01:55:13;4.60;96.00
32366;DHT22;18837;46.832;16.838;2023-02-03T01:57:48;4.60;95.90
32366;DHT22;18837;46.832;16.838;2023-02-03T02:00:16;4.60;96.30
32366;DHT22;18837;46.832;16.838;2023-02-03T02:02:44;4.60;96.00
32366;DHT22;18837;46.832;16.838;2023-02-03T02:05:19;4.60;96.00
32366;DHT22;18837;46.832;16.838;2023-02-03T02:07:47;4.60;96.10
32366;DHT22;18837;46.832;16.838;2023-02-03T02:10:12;4.60;95.90
32366;DHT22;18837;46.832;16.838;2023-02-03T02:12:38;4.60;95.90
32366;DHT22;18837;46.832;16.838;2023-02-03T02:15:04;4.60;96.00
32366;DHT22;18837;46.832;16.838;2023-02-03T02:23:59;4.60;96.20
32366;DHT22;18837;46.832;16.838;2023-02-03T02:38:07;4.50;96.60
32366;DHT22;18837;46.832;16.838;2023-02-03T02:40:52;4.50;96.60
32366;DHT22;18837;46.832;16.838;2023-02-03T02:43:25;4.50;96.30
32366;DHT22;18837;46.832;16.838;2023-02-03T02:46:23;4.50;96.30
32366;DHT22;18837;46.832;16.838;2023-02-03T02:51:19;4.50;96.30
32366;DHT22;18837;46.832;16.838;2023-02-03T02:53:50;4.50;96.20
32366;DHT22;18837;46.832;16.838;2023-02-03T02:56:18;4.50;96.30
32366;DHT22;18837;46.832;16.838;2023-02-03T02:58:47;4.50;96.20
32366;DHT22;18837;46.832;16.838;2023-02-03T03:01:15;4.50;96.30
32366;DHT22;18837;46.832;16.838;2023-02-03T03:03:41;4.50;96.30
32366;DHT22;18837;46.832;16.838;2023-02-03T03:06:34;4.50;96.30
32366;DHT22;18837;46.832;16.838;2023-02-03T03:09:08;4.50;96.30
32366;DHT22;18837;46.832;16.838;2023-02-03T03:12:00;4.50;96.80
32366;DHT22;18837;46.832;16.838;2023-02-03T03:14:30;4.50;96.70
32366;DHT22;18837;46.832;16.838;2023-02-03T03:17:00;4.50;96.30
32366;DHT22;18837;46.832;16.838;2023-02-03T03:19:39;4.50;96.40
32366;DHT22;18837;46.832;16.838;2023-02-03T03:22:10;4.50;96.40
32366;DHT22;18837;46.832;16.838;2023-02-03T03:24:47;4.40;96.40
32366;DHT22;18837;46.832;16.838;2023-02-03T03:27:19;4.50;96.40
32366;DHT22;18837;46.832;16.838;2023-02-03T03:29:52;4.40;96.40
32366;DHT22;18837;46.832;16.838;2023-02-03T03:32:21;4.40;96.40
32366;DHT22;18837;46.832;16.838;2023-02-03T03:34:48;4.40;96.50
32366;DHT22;18837;46.832;16.838;2023-02-03T03:37:21;4.40;96.40
32366;DHT22;18837;46.832;16.838;2023-02-03T03:39:59;4.40;96.40
32366;DHT22;18837;46.832;16.838;2023-02-03T03:42:28;4.40;96.50
32366;DHT22;18837;46.832;16.838;2023-02-03T03:45:00;4.40;96.40
32366;DHT22;18837;46.832;16.838;2023-02-03T03:50:12;4.40;96.50
32366;DHT22;18837;46.832;16.838;2023-02-03T03:52:40;4.40;96.40
32366;DHT22;18837;46.832;16.838;2023-02-03T03:55:09;4.40;96.40
32366;DHT22;18837;46.832;16.838;2023-02-03T03:57:42;4.40;96.40
32366;DHT22;18837;46.832;16.838;2023-02-03T04:00:16;4.40;96.50
32366;DHT22;18837;46.832;16.838;2023-02-03T04:02:45;4.40;96.80
32366;DHT22;18837;46.832;16.838;2023-02-03T04:05:13;4.50;96.50
32366;DHT22;18837;46.832;16.838;2023-02-03T04:07:44;4.40;96.40
32366;DHT22;18837;46.832;16.838;2023-02-03T04:10:21;4.60;96.50
32366;DHT22;18837;46.832;16.838;2023-02-03T04:12:47;4.30;96.30
32366;DHT22;18837;46.832;16.838;2023-02-03T04:15:13;4.30;96.40
32366;DHT22;18837;46.832;16.838;2023-02-03T04:17:39;4.30;96.40
32366;DHT22;18837;46.832;16.838;2023-02-03T04:20:05;4.30;96.30
32366;DHT22;18837;46.832;16.838;2023-02-03T04:22:31;4.30;96.60
32366;DHT22;18837;46.832;16.838;2023-02-03T04:24:56;4.30;96.40
32366;DHT22;18837;46.832;16.838;2023-02-03T04:27:24;4.30;96.40
32366;DHT22;18837;46.832;16.838;2023-02-03T04:29:50;4.30;96.50
32366;DHT22;18837;46.832;16.838;2023-02-03T04:32:16;4.30;96.30
32366;DHT22;18837;46.832;16.838;2023-02-03T04:34:41;4.30;96.30
32366;DHT22;18837;46.832;16.838;2023-02-03T04:37:07;4.30;96.30
32366;DHT22;18837;46.832;16.838;2023-02-03T04:39:33;4.30;96.40
32366;DHT22;18837;46.832;16.838;2023-02-03T04:41:58;4.30;96.40
32366;DHT22;18837;46.832;16.838;2023-02-03T04:44:24;4.30;96.40
32366;DHT22;18837;46.832;16.838;2023-02-03T04:46:50;4.30;96.50
32366;DHT22;18837;46.832;16.838;2023-02-03T04:49:16;4.30;96.50
32366;DHT22;18837;46.832;16.838;2023-02-03T04:51:42;4.30;96.50
32366;DHT22;18837;46.832;16.838;2023-02-03T04:54:09;4.30;96.50
32366;DHT22;18837;46.832;16.838;2023-02-03T04:56:36;4.30;96.50
32366;DHT22;18837;46.832;16.838;2023-02-03T04:59:02;4.20;96.40
32366;DHT22;18837;46.832;16.838;2023-02-03T05:01:28;4.30;96.50
32366;DHT22;18837;46.832;16.838;2023-02-03T05:03:53;4.30;96.40
32366;DHT22;18837;46.832;16.838;2023-02-03T05:06:27;4.20;96.40
32366;DHT22;18837;46.832;16.838;2023-02-03T05:08:57;4.20;96.30
32366;DHT22;18837;46.832;16.838;2023-02-03T05:11:23;4.20;96.50
32366;DHT22;18837;46.832;16.838;2023-02-03T05:13:49;4.20;96.40
32366;DHT22;18837;46.832;16.838;2023-02-03T05:16:15;4.20;96.40
32366;DHT22;18837;46.832;16.838;2023-02-03T05:18:41;4.20;96.40
32366;DHT22;18837;46.832;16.838;2023-02-03T05:21:07;4.20;96.40
32366;DHT22;18837;46.832;16.838;2023-02-03T05:23:33;4.20;96.40
32366;DHT22;18837;46.832;16.838;2023-02-03T05:25:59;4.20;96.40
32366;DHT22;18837;46.832;16.838;2023-02-03T05:28:24;4.20;96.40
32366;DHT22;18837;46.832;16.838;2023-02-03T05:30:50;4.20;96.50
32366;DHT22;18837;46.832;16.838;2023-02-03T05:33:16;4.20;96.40
32366;DHT22;18837;46.832;16.838;2023-02-03T05:35:42;4.20;96.40
32366;DHT22;18837;46.832;16.838;2023-02-03T05:38:08;4.20;96.40
32366;DHT22;18837;46.832;16.838;2023-02-03T05:40:34;4.20;96.40
32366;DHT22;18837;46.832;16.838;2023-02-03T05:43:18;4.20;96.70
32366;DHT22;18837;46.832;16.838;2023-02-03T05:45:44;4.20;96.40
32366;DHT22;18837;46.832;16.838;2023-02-03T05:48:10;4.30;96.50
32366;DHT22;18837;46.832;16.838;2023-02-03T05:50:36;4.20;96.50
32366;DHT22;18837;46.832;16.838;2023-02-03T05:53:04;4.20;96.50
32366;DHT22;18837;46.832;16.838;2023-02-03T05:55:32;4.20;96.60
32366;DHT22;18837;46.832;16.838;2023-02-03T05:57:58;4.20;96.40
32366;DHT22;18837;46.832;16.838;2023-02-03T06:00:26;4.20;96.50
32366;DHT22;18837;46.832;16.838;2023-02-03T06:05:18;4.20;96.50
32366;DHT22;18837;46.832;16.838;2023-02-03T06:07:44;4.20;96.50
32366;DHT22;18837;46.832;16.838;2023-02-03T06:10:10;4.20;96.50
32366;DHT22;18837;46.832;16.838;2023-02-03T06:12:39;4.20;96.50
32366;DHT22;18837;46.832;16.838;2023-02-03T06:15:05;4.20;96.40
32366;DHT22;18837;46.832;16.838;2023-02-03T06:17:31;4.20;96.60
32366;DHT22;18837;46.832;16.838;2023-02-03T06:19:56;4.20;96.60
32366;DHT22;18837;46.832;16.838;2023-02-03T06:22:22;4.20;96.50
32366;DHT22;18837;46.832;16.838;2023-02-03T06:24:48;4.20;96.50
32366;DHT22;18837;46.832;16.838;2023-02-03T06:27:15;4.20;96.50
32366;DHT22;18837;46.832;16.838;2023-02-03T06:29:41;4.20;96.50
32366;DHT22;18837;46.832;16.838;2023-02-03T06:32:07;4.20;96.60
32366;DHT22;18837;46.832;16.838;2023-02-03T06:34:36;4.20;96.60
32366;DHT22;18837;46.832;16.838;2023-02-03T06:37:02;4.30;96.60
32366;DHT22;18837;46.832;16.838;2023-02-03T06:39:28;4.30;96.60
32366;DHT22;18837;46.832;16.838;2023-02-03T06:41:53;4.20;96.50
32366;DHT22;18837;46.832;16.838;2023-02-03T06:44:21;4.30;96.50
32366;DHT22;18837;46.832;16.838;2023-02-03T06:46:47;4.30;96.50
32366;DHT22;18837;46.832;16.838;2023-02-03T06:49:12;4.20;96.60
32366;DHT22;18837;46.832;16.838;2023-02-03T06:51:42;4.20;96.60
32366;DHT22;18837;46.832;16.838;2023-02-03T06:54:09;4.20;96.70
32366;DHT22;18837;46.832;16.838;2023-02-03T06:56:35;4.20;96.50
32366;DHT22;18837;46.832;16.838;2023-02-03T06:59:00;4.20;96.50
32366;DHT22;18837;46.832;16.838;2023-02-03T07:01:27;4.20;96.60
32366;DHT22;18837;46.832;16.838;2023-02-03T07:03:54;4.20;96.50
32366;DHT22;18837;46.832;16.838;2023-02-03T07:06:25;4.20;96.60
32366;DHT22;18837;46.832;16.838;2023-02-03T07:08:57;4.20;96.60
32366;DHT22;18837;46.832;16.838;2023-02-03T07:11:24;4.20;96.60
32366;DHT22;18837;46.832;16.838;2023-02-03T07:13:51;4.20;96.60
32366;DHT22;18837;46.832;16.838;2023-02-03T07:16:17;4.20;96.50
32366;DHT22;18837;46.832;16.838;2023-02-03T07:18:43;4.20;96.60
32366;DHT22;18837;46.832;16.838;2023-02-03T07:21:09;4.20;96.50
32366;DHT22;18837;46.832;16.838;2023-02-03T07:23:37;4.20;96.60
32366;DHT22;18837;46.832;16.838;2023-02-03T07:26:05;4.20;96.90
32366;DHT22;18837;46.832;16.838;2023-02-03T07:28:32;4.20;96.60
32366;DHT22;18837;46.832;16.838;2023-02-03T07:30:58;4.20;96.50
32366;DHT22;18837;46.832;16.838;2023-02-03T07:33:23;4.20;96.60
32366;DHT22;18837;46.832;16.838;2023-02-03T07:35:58;4.30;96.60
32366;DHT22;18837;46.832;16.838;2023-02-03T07:38:26;4.30;97.10
32366;DHT22;18837;46.832;16.838;2023-02-03T07:40:52;4.30;96.60
32366;DHT22;18837;46.832;16.838;2023-02-03T07:43:18;4.30;96.60
32366;DHT22;18837;46.832;16.838;2023-02-03T07:45:44;4.30;96.50
32366;DHT22;18837;46.832;16.838;2023-02-03T07:48:11;4.30;96.50
32366;DHT22;18837;46.832;16.838;2023-02-03T07:50:37;4.30;96.60
32366;DHT22;18837;46.832;16.838;2023-02-03T07:53:04;4.30;96.50
32366;DHT22;18837;46.832;16.838;2023-02-03T07:55:30;4.30;96.60
32366;DHT22;18837;46.832;16.838;2023-02-03T07:57:56;4.30;96.60
32366;DHT22;18837;46.832;16.838;2023-02-03T08:00:23;4.30;96.60
32366;DHT22;18837;46.832;16.838;2023-02-03T08:02:49;4.30;96.60
32366;DHT22;18837;46.832;16.838;2023-02-03T08:05:16;4.30;96.50
32366;DHT22;18837;46.832;16.838;2023-02-03T08:07:42;4.30;96.50
32366;DHT22;18837;46.832;16.838;2023-02-03T08:10:09;4.30;96.40
32366;DHT22;18837;46.832;16.838;2023-02-03T08:12:36;4.30;96.40
32366;DHT22;18837;46.832;16.838;2023-02-03T08:15:01;4.30;96.40
32366;DHT22;18837;46.832;16.838;2023-02-03T08:17:28;4.30;96.50
32366;DHT22;18837;46.832;16.838;2023-02-03T08:19:54;4.30;96.50
32366;DHT22;18837;46.832;16.838;2023-02-03T08:22:20;4.30;96.40
32366;DHT22;18837;46.832;16.838;2023-02-03T08:24:46;4.20;96.30
32366;DHT22;18837;46.832;16.838;2023-02-03T08:27:13;4.30;96.40
32366;DHT22;18837;46.832;16.838;2023-02-03T08:29:39;4.30;96.50
32366;DHT22;18837;46.832;16.838;2023-02-03T08:32:11;4.30;96.40
32366;DHT22;18837;46.832;16.838;2023-02-03T08:34:40;4.30;96.30
32366;DHT22;18837;46.832;16.838;2023-02-03T08:37:06;4.30;96.60
32366;DHT22;18837;46.832;16.838;2023-02-03T08:39:33;4.30;96.50
32366;DHT22;18837;46.832;16.838;2023-02-03T08:42:00;4.30;96.40
32366;DHT22;18837;46.832;16.838;2023-02-03T08:44:26;4.30;96.40
32366;DHT22;18837;46.832;16.838;2023-02-03T08:46:52;4.30;96.50
32366;DHT22;18837;46.832;16.838;2023-02-03T08:49:19;4.30;96.40
32366;DHT22;18837;46.832;16.838;2023-02-03T08:51:47;4.30;96.60
32366;DHT22;18837;46.832;16.838;2023-02-03T08:54:13;4.30;96.50
32366;DHT22;18837;46.832;16.838;2023-02-03T08:56:40;4.30;96.40
32366;DHT22;18837;46.832;16.838;2023-02-03T08:59:05;4.30;96.40
32366;DHT22;18837;46.832;16.838;2023-02-03T09:01:31;4.40;96.50
32366;DHT22;18837;46.832;16.838;2023-02-03T09:03:57;4.40;96.50
32366;DHT22;18837;46.832;16.838;2023-02-03T09:06:25;4.40;96.50
32366;DHT22;18837;46.832;16.838;2023-02-03T09:08:51;4.40;96.50
32366;DHT22;18837;46.832;16.838;2023-02-03T09:11:17;4.40;96.60
32366;DHT22;18837;46.832;16.838;2023-02-03T09:13:43;4.50;97.10
32366;DHT22;18837;46.832;16.838;2023-02-03T09:16:14;4.50;97.20
32366;DHT22;18837;46.832;16.838;2023-02-03T09:18:42;4.50;97.50
32366;DHT22;18837;46.832;16.838;2023-02-03T09:21:09;4.50;97.00
32366;DHT22;18837;46.832;16.838;2023-02-03T09:23:39;4.50;97.00
32366;DHT22;18837;46.832;16.838;2023-02-03T09:26:07;4.60;97.20
32366;DHT22;18837;46.832;16.838;2023-02-03T09:28:42;4.60;96.80
32366;DHT22;18837;46.832;16.838;2023-02-03T09:31:10;4.60;97.00
32366;DHT22;18837;46.832;16.838;2023-02-03T09:33:36;4.60;96.80
32366;DHT22;18837;46.832;16.838;2023-02-03T09:36:03;4.60;96.70
32366;DHT22;18837;46.832;16.838;2023-02-03T09:38:31;4.60;96.80
32366;DHT22;18837;46.832;16.838;2023-02-03T09:47:33;4.70;97.00
32366;DHT22;18837;46.832;16.838;2023-02-03T09:50:02;4.70;97.00
32366;DHT22;18837;46.832;16.838;2023-02-03T09:52:37;4.80;96.80
32366;DHT22;18837;46.832;16.838;2023-02-03T09:55:23;4.80;97.00
32366;DHT22;18837;46.832;16.838;2023-02-03T09:58:14;4.80;97.40
32366;DHT22;18837;46.832;16.838;2023-02-03T10:20:33;4.90;97.40
32366;DHT22;18837;46.832;16.838;2023-02-03T10:23:40;5.00;97.10
32366;DHT22;18837;46.832;16.838;2023-02-03T10:26:17;5.00;97.30
32366;DHT22;18837;46.832;16.838;2023-02-03T10:29:01;5.00;97.40
32366;DHT22;18837;46.832;16.838;2023-02-03T10:31:32;5.00;97.40
32366;DHT22;18837;46.832;16.838;2023-02-03T10:34:07;5.00;96.80
32366;DHT22;18837;46.832;16.838;2023-02-03T10:39:30;5.00;97.40
32366;DHT22;18837;46.832;16.838;2023-02-03T10:41:57;5.10;97.60
32366;DHT22;18837;46.832;16.838;2023-02-03T10:49:43;5.20;97.80
32366;DHT22;18837;46.832;16.838;2023-02-03T10:52:29;5.20;97.30
32366;DHT22;18837;46.832;16.838;2023-02-03T10:54:55;5.20;97.50
32366;DHT22;18837;46.832;16.838;2023-02-03T10:57:24;5.20;96.90
32366;DHT22;18837;46.832;16.838;2023-02-03T10:59:50;5.30;96.80
32366;DHT22;18837;46.832;16.838;2023-02-03T11:02:34;5.30;96.90
32366;DHT22;18837;46.832;16.838;2023-02-03T11:07:42;5.30;97.10
32366;DHT22;18837;46.832;16.838;2023-02-03T11:16:14;5.40;97.80
32366;DHT22;18837;46.832;16.838;2023-02-03T11:21:30;5.40;97.60
32366;DHT22;18837;46.832;16.838;2023-02-03T11:29:20;5.50;98.00
32366;DHT22;18837;46.832;16.838;2023-02-03T11:31:58;5.60;97.70
32366;DHT22;18837;46.832;16.838;2023-02-03T11:34:30;5.70;97.00
32366;DHT22;18837;46.832;16.838;2023-02-03T11:39:55;5.80;97.20
32366;DHT22;18837;46.832;16.838;2023-02-03T11:42:22;5.80;96.50
32366;DHT22;18837;46.832;16.838;2023-02-03T11:44:49;5.80;96.70
32366;DHT22;18837;46.832;16.838;2023-02-03T11:47:16;5.80;97.20
32366;DHT22;18837;46.832;16.838;2023-02-03T11:57:59;5.70;97.40
32366;DHT22;18837;46.832;16.838;2023-02-03T12:00:53;5.80;97.70
32366;DHT22;18837;46.832;16.838;2023-02-03T12:09:19;5.90;98.10
32366;DHT22;18837;46.832;16.838;2023-02-03T12:20:22;5.80;98.20
32366;DHT22;18837;46.832;16.838;2023-02-03T12:23:02;5.90;98.00
32366;DHT22;18837;46.832;16.838;2023-02-03T12:31:11;6.00;97.30
32366;DHT22;18837;46.832;16.838;2023-02-03T12:33:47;6.00;97.20
32366;DHT22;18837;46.832;16.838;2023-02-03T12:36:26;6.00;97.30
32366;DHT22;18837;46.832;16.838;2023-02-03T12:39:01;6.00;97.50
32366;DHT22;18837;46.832;16.838;2023-02-03T12:41:35;6.00;96.90
32366;DHT22;18837;46.832;16.838;2023-02-03T12:44:34;6.00;96.70
32366;DHT22;18837;46.832;16.838;2023-02-03T12:47:13;6.00;97.00
32366;DHT22;18837;46.832;16.838;2023-02-03T12:50:02;6.00;96.90
32366;DHT22;18837;46.832;16.838;2023-02-03T12:52:39;6.00;97.00
32366;DHT22;18837;46.832;16.838;2023-02-03T12:57:48;6.00;97.60
32366;DHT22;18837;46.832;16.838;2023-02-03T13:00:50;6.00;97.10
32366;DHT22;18837;46.832;16.838;2023-02-03T13:03:44;6.00;96.80
32366;DHT22;18837;46.832;16.838;2023-02-03T13:06:23;6.00;97.40
32366;DHT22;18837;46.832;16.838;2023-02-03T13:09:33;6.00;97.20
32366;DHT22;18837;46.832;16.838;2023-02-03T13:12:12;6.00;97.20
32366;DHT22;18837;46.832;16.838;2023-02-03T13:15:36;6.00;96.90
32366;DHT22;18837;46.832;16.838;2023-02-03T13:18:08;6.00;96.90
32366;DHT22;18837;46.832;16.838;2023-02-03T13:20:40;6.00;97.40
32366;DHT22;18837;46.832;16.838;2023-02-03T13:23:11;6.00;97.00
32366;DHT22;18837;46.832;16.838;2023-02-03T13:28:30;6.00;97.60
32366;DHT22;18837;46.832;16.838;2023-02-03T13:31:32;6.00;97.40
32366;DHT22;18837;46.832;16.838;2023-02-03T13:42:27;6.00;97.70
32366;DHT22;18837;46.832;16.838;2023-02-03T13:47:51;6.00;96.80
32366;DHT22;18837;46.832;16.838;2023-02-03T13:50:27;6.10;96.10
32366;DHT22;18837;46.832;16.838;2023-02-03T13:53:03;6.10;96.30
32366;DHT22;18837;46.832;16.838;2023-02-03T13:57:59;6.00;95.70
32366;DHT22;18837;46.832;16.838;2023-02-03T14:16:37;5.90;97.10
32366;DHT22;18837;46.832;16.838;2023-02-03T14:19:04;5.90;97.00
32366;DHT22;18837;46.832;16.838;2023-02-03T14:22:22;5.90;97.20
32366;DHT22;18837;46.832;16.838;2023-02-03T14:24:36;5.90;97.30
32366;DHT22;18837;46.832;16.838;2023-02-03T14:27:05;5.90;97.80
32366;DHT22;18837;46.832;16.838;2023-02-03T14:29:41;5.90;97.50
32366;DHT22;18837;46.832;16.838;2023-02-03T14:32:09;5.90;97.50
32366;DHT22;18837;46.832;16.838;2023-02-03T14:34:46;5.90;97.40
32366;DHT22;18837;46.832;16.838;2023-02-03T14:37:27;5.90;97.60
32366;DHT22;18837;46.832;16.838;2023-02-03T14:45:38;5.80;97.60
32366;DHT22;18837;46.832;16.838;2023-02-03T14:52:00;5.80;97.30
32366;DHT22;18837;46.832;16.838;2023-02-03T14:54:46;5.80;97.10
32366;DHT22;18837;46.832;16.838;2023-02-03T14:57:48;5.80;96.90
32366;DHT22;18837;46.832;16.838;2023-02-03T15:08:01;5.80;96.50
32366;DHT22;18837;46.832;16.838;2023-02-03T15:10:44;5.80;96.40
32366;DHT22;18837;46.832;16.838;2023-02-03T15:13:27;5.80;96.60
32366;DHT22;18837;46.832;16.838;2023-02-03T15:16:02;5.80;96.70
32366;DHT22;18837;46.832;16.838;2023-02-03T15:18:31;5.80;97.30
32366;DHT22;18837;46.832;16.838;2023-02-03T15:20:57;5.80;97.00
32366;DHT22;18837;46.832;16.838;2023-02-03T15:23:46;5.80;96.90
32366;DHT22;18837;46.832;16.838;2023-02-03T15:26:14;5.80;97.50
32366;DHT22;18837;46.832;16.838;2023-02-03T15:28:42;5.80;97.00
32366;DHT22;18837;46.832;16.838;2023-02-03T15:33:50;5.80;97.10
32366;DHT22;18837;46.832;16.838;2023-02-03T15:36:41;5.80;96.90
32366;DHT22;18837;46.832;16.838;2023-02-03T15:41:57;5.80;97.20
32366;DHT22;18837;46.832;16.838;2023-02-03T15:44:36;5.80;96.80
32366;DHT22;18837;46.832;16.838;2023-02-03T15:47:05;5.80;96.80
32366;DHT22;18837;46.832;16.838;2023-02-03T15:49:41;5.70;96.80
32366;DHT22;18837;46.832;16.838;2023-02-03T15:52:18;5.70;96.70
32366;DHT22;18837;46.832;16.838;2023-02-03T15:54:49;5.70;96.80
32366;DHT22;18837;46.832;16.838;2023-02-03T15:57:26;5.70;96.70
32366;DHT22;18837;46.832;16.838;2023-02-03T16:00:02;5.80;96.80
32366;DHT22;18837;46.832;16.838;2023-02-03T16:02:38;5.70;96.70
32366;DHT22;18837;46.832;16.838;2023-02-03T16:05:32;5.70;96.80
32366;DHT22;18837;46.832;16.838;2023-02-03T16:11:37;5.80;96.70
32366;DHT22;18837;46.832;16.838;2023-02-03T16:14:09;5.80;95.90
32366;DHT22;18837;46.832;16.838;2023-02-03T16:16:50;5.80;95.60
32366;DHT22;18837;46.832;16.838;2023-02-03T16:19:38;5.80;95.70
32366;DHT22;18837;46.832;16.838;2023-02-03T16:22:39;5.80;96.30
32366;DHT22;18837;46.832;16.838;2023-02-03T16:25:20;5.80;95.80
32366;DHT22;18837;46.832;16.838;2023-02-03T16:30:23;5.80;96.30
32366;DHT22;18837;46.832;16.838;2023-02-03T16:35:49;5.70;96.60
32366;DHT22;18837;46.832;16.838;2023-02-03T16:38:54;5.70;96.40
32366;DHT22;18837;46.832;16.838;2023-02-03T16:41:41;5.70;96.20
32366;DHT22;18837;46.832;16.838;2023-02-03T16:44:25;5.70;96.00
32366;DHT22;18837;46.832;16.838;2023-02-03T16:47:24;5.70;96.20
32366;DHT22;18837;46.832;16.838;2023-02-03T16:58:27;5.70;96.60
32366;DHT22;18837;46.832;16.838;2023-02-03T17:00:59;5.70;96.10
32366;DHT22;18837;46.832;16.838;2023-02-03T17:03:26;5.70;96.10
32366;DHT22;18837;46.832;16.838;2023-02-03T17:05:53;5.70;96.20
32366;DHT22;18837;46.832;16.838;2023-02-03T17:08:22;5.70;96.10
32366;DHT22;18837;46.832;16.838;2023-02-03T17:10:48;5.70;96.50
32366;DHT22;18837;46.832;16.838;2023-02-03T17:13:17;5.70;96.30
32366;DHT22;18837;46.832;16.838;2023-02-03T17:15:45;5.70;96.30
32366;DHT22;18837;46.832;16.838;2023-02-03T17:18:17;5.70;96.40
32366;DHT22;18837;46.832;16.838;2023-02-03T17:20:46;5.70;96.30
32366;DHT22;18837;46.832;16.838;2023-02-03T17:23:13;5.70;96.40
32366;DHT22;18837;46.832;16.838;2023-02-03T17:25:43;5.60;96.40
32366;DHT22;18837;46.832;16.838;2023-02-03T17:28:21;5.70;96.40
32366;DHT22;18837;46.832;16.838;2023-02-03T17:31:14;5.70;96.30
32366;DHT22;18837;46.832;16.838;2023-02-03T17:33:41;5.60;96.90
32366;DHT22;18837;46.832;16.838;2023-02-03T17:41:22;5.60;96.70
32366;DHT22;18837;46.832;16.838;2023-02-03T17:43:49;5.60;96.30
32366;DHT22;18837;46.832;16.838;2023-02-03T17:51:23;5.60;96.60
32366;DHT22;18837;46.832;16.838;2023-02-03T17:53:55;5.60;96.40
32366;DHT22;18837;46.832;16.838;2023-02-03T17:56:23;5.60;96.40
32366;DHT22;18837;46.832;16.838;2023-02-03T17:58:57;5.60;96.40
32366;DHT22;18837;46.832;16.838;2023-02-03T18:09:09;5.60;96.90
32366;DHT22;18837;46.832;16.838;2023-02-03T18:14:19;5.50;96.60
32366;DHT22;18837;46.832;16.838;2023-02-03T18:16:48;5.30;96.30
32366;DHT22;18837;46.832;16.838;2023-02-03T18:19:14;5.50;96.50
32366;DHT22;18837;46.832;16.838;2023-02-03T18:24:24;5.50;96.90
32366;DHT22;18837;46.832;16.838;2023-02-03T18:26:53;5.50;96.50
32366;DHT22;18837;46.832;16.838;2023-02-03T18:29:19;5.50;96.50
32366;DHT22;18837;46.832;16.838;2023-02-03T18:42:05;5.50;96.60
32366;DHT22;18837;46.832;16.838;2023-02-03T18:44:36;5.50;96.40
32366;DHT22;18837;46.832;16.838;2023-02-03T18:47:05;5.50;96.20
32366;DHT22;18837;46.832;16.838;2023-02-03T18:49:35;5.50;96.20
32366;DHT22;18837;46.832;16.838;2023-02-03T18:52:04;5.50;96.30
32366;DHT22;18837;46.832;16.838;2023-02-03T18:54:50;5.60;96.40
32366;DHT22;18837;46.832;16.838;2023-02-03T18:57:16;5.60;96.30
32366;DHT22;18837;46.832;16.838;2023-02-03T19:07:55;5.60;96.40
32366;DHT22;18837;46.832;16.838;2023-02-03T19:10:26;5.60;96.20
32366;DHT22;18837;46.832;16.838;2023-02-03T19:18:02;5.60;96.50
32366;DHT22;18837;46.832;16.838;2023-02-03T19:20:28;5.60;96.20
32366;DHT22;18837;46.832;16.838;2023-02-03T19:25:25;5.60;96.30
32366;DHT22;18837;46.832;16.838;2023-02-03T19:30:41;5.60;96.40
32366;DHT22;18837;46.832;16.838;2023-02-03T19:33:10;5.70;96.10
32366;DHT22;18837;46.832;16.838;2023-02-03T19:35:45;5.60;96.20
32366;DHT22;18837;46.832;16.838;2023-02-03T19:38:18;5.70;96.50
32366;DHT22;18837;46.832;16.838;2023-02-03T19:56:39;5.70;96.40
32366;DHT22;18837;46.832;16.838;2023-02-03T20:05:15;5.70;96.20
32366;DHT22;18837;46.832;16.838;2023-02-03T20:07:44;5.70;96.20
32366;DHT22;18837;46.832;16.838;2023-02-03T20:10:10;5.70;96.20
32366;DHT22;18837;46.832;16.838;2023-02-03T20:12:45;5.70;96.20